sensor_id;sensor_type;location;lat;lon;timestamp;P1;durP1;ratioP1;P2;durP2;ratioP2
52322;SDS011;38263;52.920;6.238;2023-05-10T00:01:22;10.38;;;7.97;;
52322;SDS011;38263;52.920;6.238;2023-05-10T00:03:48;10.98;;;8.50;;
52322;SDS011;38263;52.920;6.238;2023-05-10T00:06:14;11.07;;;8.55;;
52322;SDS011;38263;52.920;6.238;2023-05-10T00:08:40;12.18;;;9.00;;
52322;SDS011;38263;52.920;6.238;2023-05-10T00:11:06;11.00;;;8.73;;
52322;SDS011;38263;52.920;6.238;2023-05-10T00:13:32;12.35;;;8.85;;
52322;SDS011;38263;52.920;6.238;2023-05-10T00:15:58;12.27;;;9.75;;
52322;SDS011;38263;52.920;6.238;2023-05-10T00:18:24;14.30;;;9.68;;
52322;SDS011;38263;52.920;6.238;2023-05-10T00:20:50;10.98;;;9.02;;
52322;SDS011;38263;52.920;6.238;2023-05-10T00:23:16;14.43;;;10.32;;
52322;SDS011;38263;52.920;6.238;2023-05-10T00:25:42;16.73;;;10.55;;
52322;SDS011;38263;52.920;6.238;2023-05-10T00:28:08;13.45;;;9.90;;
52322;SDS011;38263;52.920;6.238;2023-05-10T00:30:34;14.38;;;10.35;;
52322;SDS011;38263;52.920;6.238;2023-05-10T00:32:59;16.67;;;10.98;;
52322;SDS011;38263;52.920;6.238;2023-05-10T00:35:25;16.00;;;10.43;;
52322;SDS011;38263;52.920;6.238;2023-05-10T00:37:51;17.30;;;11.23;;
52322;SDS011;38263;52.920;6.238;2023-05-10T00:40:17;16.60;;;10.82;;
52322;SDS011;38263;52.920;6.238;2023-05-10T00:42:43;15.10;;;10.30;;
52322;SDS011;38263;52.920;6.238;2023-05-10T00:45:09;15.25;;;10.35;;
52322;SDS011;38263;52.920;6.238;2023-05-10T00:47:34;15.65;;;10.57;;
52322;SDS011;38263;52.920;6.238;2023-05-10T00:50:00;16.58;;;10.25;;
52322;SDS011;38263;52.920;6.238;2023-05-10T00:52:27;15.60;;;10.95;;
52322;SDS011;38263;52.920;6.238;2023-05-10T00:54:54;19.35;;;11.38;;
52322;SDS011;38263;52.920;6.238;2023-05-10T00:57:20;14.98;;;10.70;;
52322;SDS011;38263;52.920;6.238;2023-05-10T00:59:46;18.23;;;10.60;;
52322;SDS011;38263;52.920;6.238;2023-05-10T01:02:12;18.33;;;10.68;;
52322;SDS011;38263;52.920;6.238;2023-05-10T01:04:38;16.75;;;11.35;;
52322;SDS011;38263;52.920;6.238;2023-05-10T01:07:04;16.95;;;10.95;;
52322;SDS011;38263;52.920;6.238;2023-05-10T01:09:30;15.90;;;10.15;;
52322;SDS011;38263;52.920;6.238;2023-05-10T01:11:56;20.05;;;11.07;;
52322;SDS011;38263;52.920;6.238;2023-05-10T01:14:22;17.98;;;10.10;;
52322;SDS011;38263;52.920;6.238;2023-05-10T01:16:49;18.00;;;11.23;;
52322;SDS011;38263;52.920;6.238;2023-05-10T01:19:23;14.90;;;10.68;;
52322;SDS011;38263;52.920;6.238;2023-05-10T01:30:24;14.30;;;9.90;;
52322;SDS011;38263;52.920;6.238;2023-05-10T01:32:57;15.77;;;10.05;;
52322;SDS011;38263;52.920;6.238;2023-05-10T01:35:35;15.30;;;10.40;;
52322;SDS011;38263;52.920;6.238;2023-05-10T01:38:15;15.25;;;10.50;;
52322;SDS011;38263;52.920;6.238;2023-05-10T01:40:52;13.73;;;9.52;;
52322;SDS011;38263;52.920;6.238;2023-05-10T01:43:31;14.23;;;9.63;;
52322;SDS011;38263;52.920;6.238;2023-05-10T01:46:02;13.07;;;9.55;;
52322;SDS011;38263;52.920;6.238;2023-05-10T01:48:36;12.75;;;9.32;;
52322;SDS011;38263;52.920;6.238;2023-05-10T01:51:08;12.30;;;9.25;;
52322;SDS011;38263;52.920;6.238;2023-05-10T01:53:35;13.93;;;9.82;;
52322;SDS011;38263;52.920;6.238;2023-05-10T01:56:03;11.30;;;9.13;;
52322;SDS011;38263;52.920;6.238;2023-05-10T01:58:31;12.52;;;8.90;;
52322;SDS011;38263;52.920;6.238;2023-05-10T02:01:00;13.00;;;9.45;;
52322;SDS011;38263;52.920;6.238;2023-05-10T02:03:28;13.07;;;9.25;;
52322;SDS011;38263;52.920;6.238;2023-05-10T02:05:55;13.25;;;9.80;;
52322;SDS011;38263;52.920;6.238;2023-05-10T02:08:22;13.15;;;10.38;;
52322;SDS011;38263;52.920;6.238;2023-05-10T02:10:49;13.90;;;9.77;;
52322;SDS011;38263;52.920;6.238;2023-05-10T02:13:17;12.57;;;8.68;;
52322;SDS011;38263;52.920;6.238;2023-05-10T02:15:45;11.57;;;8.63;;
52322;SDS011;38263;52.920;6.238;2023-05-10T02:18:13;9.60;;;7.82;;
52322;SDS011;38263;52.920;6.238;2023-05-10T02:20:40;9.20;;;7.70;;
52322;SDS011;38263;52.920;6.238;2023-05-10T02:23:08;9.18;;;7.50;;
52322;SDS011;38263;52.920;6.238;2023-05-10T02:25:34;10.60;;;7.70;;
52322;SDS011;38263;52.920;6.238;2023-05-10T02:28:02;11.90;;;7.53;;
52322;SDS011;38263;52.920;6.238;2023-05-10T02:30:30;11.93;;;8.27;;
52322;SDS011;38263;52.920;6.238;2023-05-10T02:32:57;7.82;;;6.78;;
52322;SDS011;38263;52.920;6.238;2023-05-10T02:35:24;9.68;;;6.85;;
52322;SDS011;38263;52.920;6.238;2023-05-10T02:37:51;8.10;;;6.28;;
52322;SDS011;38263;52.920;6.238;2023-05-10T02:40:18;8.75;;;6.13;;
52322;SDS011;38263;52.920;6.238;2023-05-10T02:42:46;10.82;;;6.55;;
52322;SDS011;38263;52.920;6.238;2023-05-10T02:45:15;9.55;;;6.15;;
52322;SDS011;38263;52.920;6.238;2023-05-10T02:47:46;9.35;;;6.70;;
52322;SDS011;38263;52.920;6.238;2023-05-10T02:50:12;8.02;;;5.60;;
52322;SDS011;38263;52.920;6.238;2023-05-10T02:52:47;7.32;;;5.20;;
52322;SDS011;38263;52.920;6.238;2023-05-10T02:55:19;12.73;;;5.85;;
52322;SDS011;38263;52.920;6.238;2023-05-10T02:57:51;8.90;;;5.47;;
52322;SDS011;38263;52.920;6.238;2023-05-10T03:00:21;5.88;;;4.88;;
52322;SDS011;38263;52.920;6.238;2023-05-10T03:02:47;6.80;;;5.20;;
52322;SDS011;38263;52.920;6.238;2023-05-10T03:05:13;7.07;;;5.80;;
52322;SDS011;38263;52.920;6.238;2023-05-10T03:07:38;6.93;;;5.82;;
52322;SDS011;38263;52.920;6.238;2023-05-10T03:10:04;6.35;;;5.30;;
52322;SDS011;38263;52.920;6.238;2023-05-10T03:12:52;7.65;;;5.20;;
52322;SDS011;38263;52.920;6.238;2023-05-10T03:15:41;6.15;;;5.07;;
52322;SDS011;38263;52.920;6.238;2023-05-10T03:20:56;7.53;;;5.60;;
52322;SDS011;38263;52.920;6.238;2023-05-10T03:23:27;6.55;;;5.60;;
52322;SDS011;38263;52.920;6.238;2023-05-10T03:25:53;6.80;;;5.70;;
52322;SDS011;38263;52.920;6.238;2023-05-10T03:28:20;6.90;;;5.97;;
52322;SDS011;38263;52.920;6.238;2023-05-10T03:30:46;6.85;;;5.38;;
52322;SDS011;38263;52.920;6.238;2023-05-10T03:33:12;8.07;;;6.25;;
52322;SDS011;38263;52.920;6.238;2023-05-10T03:35:39;9.55;;;6.63;;
52322;SDS011;38263;52.920;6.238;2023-05-10T03:38:05;6.85;;;6.00;;
52322;SDS011;38263;52.920;6.238;2023-05-10T03:40:31;10.27;;;7.47;;
52322;SDS011;38263;52.920;6.238;2023-05-10T03:42:57;6.68;;;5.97;;
52322;SDS011;38263;52.920;6.238;2023-05-10T03:45:23;7.47;;;6.15;;
52322;SDS011;38263;52.920;6.238;2023-05-10T03:47:49;7.13;;;5.75;;
52322;SDS011;38263;52.920;6.238;2023-05-10T03:50:16;8.10;;;6.22;;
52322;SDS011;38263;52.920;6.238;2023-05-10T03:52:43;8.98;;;6.10;;
52322;SDS011;38263;52.920;6.238;2023-05-10T03:55:09;8.65;;;6.13;;
52322;SDS011;38263;52.920;6.238;2023-05-10T03:57:35;8.00;;;6.75;;
52322;SDS011;38263;52.920;6.238;2023-05-10T04:00:01;8.30;;;7.03;;
52322;SDS011;38263;52.920;6.238;2023-05-10T04:02:27;9.48;;;6.28;;
52322;SDS011;38263;52.920;6.238;2023-05-10T04:04:54;7.70;;;6.15;;
52322;SDS011;38263;52.920;6.238;2023-05-10T04:07:20;10.48;;;7.50;;
52322;SDS011;38263;52.920;6.238;2023-05-10T04:09:46;8.07;;;6.63;;
52322;SDS011;38263;52.920;6.238;2023-05-10T04:12:13;7.70;;;6.05;;
52322;SDS011;38263;52.920;6.238;2023-05-10T04:14:39;8.43;;;6.50;;
52322;SDS011;38263;52.920;6.238;2023-05-10T04:17:05;8.10;;;7.05;;
52322;SDS011;38263;52.920;6.238;2023-05-10T04:19:31;8.40;;;6.00;;
52322;SDS011;38263;52.920;6.238;2023-05-10T04:21:57;7.40;;;5.78;;
52322;SDS011;38263;52.920;6.238;2023-05-10T04:24:23;7.82;;;5.80;;
52322;SDS011;38263;52.920;6.238;2023-05-10T04:26:49;11.35;;;6.07;;
52322;SDS011;38263;52.920;6.238;2023-05-10T04:29:15;6.80;;;6.10;;
52322;SDS011;38263;52.920;6.238;2023-05-10T04:31:40;6.95;;;5.40;;
52322;SDS011;38263;52.920;6.238;2023-05-10T04:34:06;5.43;;;4.85;;
52322;SDS011;38263;52.920;6.238;2023-05-10T04:36:32;5.47;;;4.75;;
52322;SDS011;38263;52.920;6.238;2023-05-10T04:39:00;6.07;;;5.47;;
52322;SDS011;38263;52.920;6.238;2023-05-10T04:41:27;7.32;;;5.07;;
52322;SDS011;38263;52.920;6.238;2023-05-10T04:43:53;11.80;;;7.45;;
52322;SDS011;38263;52.920;6.238;2023-05-10T04:46:19;7.55;;;5.78;;
52322;SDS011;38263;52.920;6.238;2023-05-10T04:48:45;6.97;;;5.97;;
52322;SDS011;38263;52.920;6.238;2023-05-10T04:51:11;8.52;;;5.95;;
52322;SDS011;38263;52.920;6.238;2023-05-10T04:53:37;6.43;;;5.60;;
52322;SDS011;38263;52.920;6.238;2023-05-10T04:56:03;7.00;;;6.30;;
52322;SDS011;38263;52.920;6.238;2023-05-10T04:58:29;7.82;;;6.07;;
52322;SDS011;38263;52.920;6.238;2023-05-10T05:00:55;6.90;;;6.20;;
52322;SDS011;38263;52.920;6.238;2023-05-10T05:03:21;8.43;;;6.28;;
52322;SDS011;38263;52.920;6.238;2023-05-10T05:05:47;8.13;;;6.88;;
52322;SDS011;38263;52.920;6.238;2023-05-10T05:08:13;8.18;;;6.53;;
52322;SDS011;38263;52.920;6.238;2023-05-10T05:10:39;8.93;;;6.50;;
52322;SDS011;38263;52.920;6.238;2023-05-10T05:13:05;8.80;;;6.63;;
52322;SDS011;38263;52.920;6.238;2023-05-10T05:15:31;7.45;;;6.18;;
52322;SDS011;38263;52.920;6.238;2023-05-10T05:17:57;8.57;;;6.93;;
52322;SDS011;38263;52.920;6.238;2023-05-10T05:20:22;10.88;;;7.82;;
52322;SDS011;38263;52.920;6.238;2023-05-10T05:22:48;10.23;;;7.68;;
52322;SDS011;38263;52.920;6.238;2023-05-10T05:25:14;7.97;;;7.05;;
52322;SDS011;38263;52.920;6.238;2023-05-10T05:27:40;8.20;;;7.28;;
52322;SDS011;38263;52.920;6.238;2023-05-10T05:30:06;7.55;;;6.45;;
52322;SDS011;38263;52.920;6.238;2023-05-10T05:32:32;6.25;;;5.65;;
52322;SDS011;38263;52.920;6.238;2023-05-10T05:34:58;7.15;;;5.47;;
52322;SDS011;38263;52.920;6.238;2023-05-10T05:37:24;7.18;;;5.28;;
52322;SDS011;38263;52.920;6.238;2023-05-10T05:39:50;5.53;;;4.55;;
52322;SDS011;38263;52.920;6.238;2023-05-10T05:42:15;4.70;;;4.20;;
52322;SDS011;38263;52.920;6.238;2023-05-10T05:44:43;7.10;;;4.72;;
52322;SDS011;38263;52.920;6.238;2023-05-10T05:47:09;4.95;;;4.15;;
52322;SDS011;38263;52.920;6.238;2023-05-10T05:49:35;5.22;;;4.50;;
52322;SDS011;38263;52.920;6.238;2023-05-10T05:52:02;6.20;;;4.43;;
52322;SDS011;38263;52.920;6.238;2023-05-10T05:54:29;5.20;;;4.00;;
52322;SDS011;38263;52.920;6.238;2023-05-10T05:56:59;5.13;;;4.45;;
52322;SDS011;38263;52.920;6.238;2023-05-10T05:59:25;7.40;;;4.60;;
52322;SDS011;38263;52.920;6.238;2023-05-10T06:01:51;4.80;;;4.03;;
52322;SDS011;38263;52.920;6.238;2023-05-10T06:04:17;5.15;;;4.35;;
52322;SDS011;38263;52.920;6.238;2023-05-10T06:06:44;7.25;;;4.50;;
52322;SDS011;38263;52.920;6.238;2023-05-10T06:09:10;7.88;;;4.85;;
52322;SDS011;38263;52.920;6.238;2023-05-10T06:11:36;6.45;;;4.88;;
52322;SDS011;38263;52.920;6.238;2023-05-10T06:14:02;4.25;;;3.78;;
52322;SDS011;38263;52.920;6.238;2023-05-10T06:16:29;5.80;;;3.88;;
52322;SDS011;38263;52.920;6.238;2023-05-10T06:18:55;5.10;;;4.30;;
52322;SDS011;38263;52.920;6.238;2023-05-10T06:21:21;5.53;;;4.10;;
52322;SDS011;38263;52.920;6.238;2023-05-10T06:23:47;6.05;;;3.72;;
52322;SDS011;38263;52.920;6.238;2023-05-10T06:26:13;5.95;;;3.92;;
52322;SDS011;38263;52.920;6.238;2023-05-10T06:28:39;7.20;;;3.75;;
52322;SDS011;38263;52.920;6.238;2023-05-10T06:31:05;5.88;;;4.55;;
52322;SDS011;38263;52.920;6.238;2023-05-10T06:33:31;7.13;;;4.63;;
52322;SDS011;38263;52.920;6.238;2023-05-10T06:35:57;9.02;;;5.25;;
52322;SDS011;38263;52.920;6.238;2023-05-10T06:38:23;6.25;;;5.25;;
52322;SDS011;38263;52.920;6.238;2023-05-10T06:40:49;12.18;;;6.05;;
52322;SDS011;38263;52.920;6.238;2023-05-10T06:43:15;7.07;;;5.10;;
52322;SDS011;38263;52.920;6.238;2023-05-10T06:45:40;7.30;;;5.28;;
52322;SDS011;38263;52.920;6.238;2023-05-10T06:48:07;7.20;;;6.03;;
52322;SDS011;38263;52.920;6.238;2023-05-10T06:50:33;6.95;;;5.93;;
52322;SDS011;38263;52.920;6.238;2023-05-10T06:52:59;8.48;;;5.50;;
52322;SDS011;38263;52.920;6.238;2023-05-10T06:55:25;6.30;;;5.07;;
52322;SDS011;38263;52.920;6.238;2023-05-10T06:57:51;7.18;;;5.55;;
52322;SDS011;38263;52.920;6.238;2023-05-10T07:00:18;7.68;;;5.10;;
52322;SDS011;38263;52.920;6.238;2023-05-10T07:02:44;6.25;;;4.40;;
52322;SDS011;38263;52.920;6.238;2023-05-10T07:05:10;6.18;;;4.45;;
52322;SDS011;38263;52.920;6.238;2023-05-10T07:07:36;6.35;;;4.90;;
52322;SDS011;38263;52.920;6.238;2023-05-10T07:10:02;5.95;;;4.22;;
52322;SDS011;38263;52.920;6.238;2023-05-10T07:12:28;8.07;;;5.20;;
52322;SDS011;38263;52.920;6.238;2023-05-10T07:14:54;5.55;;;4.07;;
52322;SDS011;38263;52.920;6.238;2023-05-10T07:17:20;9.93;;;4.28;;
52322;SDS011;38263;52.920;6.238;2023-05-10T07:19:46;8.40;;;4.65;;
52322;SDS011;38263;52.920;6.238;2023-05-10T07:22:12;4.53;;;3.55;;
52322;SDS011;38263;52.920;6.238;2023-05-10T07:24:38;4.13;;;3.33;;
52322;SDS011;38263;52.920;6.238;2023-05-10T07:27:04;4.85;;;3.55;;
52322;SDS011;38263;52.920;6.238;2023-05-10T07:29:30;4.63;;;3.38;;
52322;SDS011;38263;52.920;6.238;2023-05-10T07:31:56;4.47;;;3.55;;
52322;SDS011;38263;52.920;6.238;2023-05-10T07:34:22;6.05;;;3.70;;
52322;SDS011;38263;52.920;6.238;2023-05-10T07:36:48;4.47;;;3.55;;
52322;SDS011;38263;52.920;6.238;2023-05-10T07:39:14;4.68;;;3.88;;
52322;SDS011;38263;52.920;6.238;2023-05-10T07:41:40;5.45;;;3.65;;
52322;SDS011;38263;52.920;6.238;2023-05-10T07:44:06;5.65;;;3.65;;
52322;SDS011;38263;52.920;6.238;2023-05-10T07:46:32;6.20;;;4.15;;
52322;SDS011;38263;52.920;6.238;2023-05-10T07:48:58;6.10;;;3.40;;
52322;SDS011;38263;52.920;6.238;2023-05-10T07:51:24;5.43;;;3.45;;
52322;SDS011;38263;52.920;6.238;2023-05-10T07:53:49;4.82;;;3.30;;
52322;SDS011;38263;52.920;6.238;2023-05-10T07:56:20;5.85;;;3.63;;
52322;SDS011;38263;52.920;6.238;2023-05-10T07:59:01;4.93;;;3.25;;
52322;SDS011;38263;52.920;6.238;2023-05-10T08:01:32;5.93;;;3.90;;
52322;SDS011;38263;52.920;6.238;2023-05-10T08:03:59;6.38;;;3.80;;
52322;SDS011;38263;52.920;6.238;2023-05-10T08:06:25;4.97;;;3.35;;
52322;SDS011;38263;52.920;6.238;2023-05-10T08:08:54;4.85;;;3.78;;
52322;SDS011;38263;52.920;6.238;2023-05-10T08:11:20;4.85;;;3.95;;
52322;SDS011;38263;52.920;6.238;2023-05-10T08:13:46;4.53;;;3.53;;
52322;SDS011;38263;52.920;6.238;2023-05-10T08:16:13;4.03;;;3.30;;
52322;SDS011;38263;52.920;6.238;2023-05-10T08:18:39;3.85;;;3.42;;
52322;SDS011;38263;52.920;6.238;2023-05-10T08:21:05;4.80;;;3.83;;
52322;SDS011;38263;52.920;6.238;2023-05-10T08:23:31;5.10;;;3.75;;
52322;SDS011;38263;52.920;6.238;2023-05-10T08:25:57;5.13;;;4.00;;
52322;SDS011;38263;52.920;6.238;2023-05-10T08:28:23;4.22;;;3.67;;
52322;SDS011;38263;52.920;6.238;2023-05-10T08:30:49;6.00;;;3.63;;
52322;SDS011;38263;52.920;6.238;2023-05-10T08:33:17;5.25;;;4.03;;
52322;SDS011;38263;52.920;6.238;2023-05-10T08:35:43;7.68;;;4.50;;
52322;SDS011;38263;52.920;6.238;2023-05-10T08:38:09;6.50;;;4.32;;
52322;SDS011;38263;52.920;6.238;2023-05-10T08:40:36;5.05;;;4.32;;
52322;SDS011;38263;52.920;6.238;2023-05-10T08:43:06;4.13;;;3.40;;
52322;SDS011;38263;52.920;6.238;2023-05-10T08:45:36;5.47;;;4.05;;
52322;SDS011;38263;52.920;6.238;2023-05-10T08:48:04;6.38;;;3.78;;
52322;SDS011;38263;52.920;6.238;2023-05-10T08:50:32;6.00;;;4.03;;
52322;SDS011;38263;52.920;6.238;2023-05-10T08:53:01;6.80;;;3.83;;
52322;SDS011;38263;52.920;6.238;2023-05-10T08:55:31;6.05;;;4.20;;
52322;SDS011;38263;52.920;6.238;2023-05-10T08:57:58;5.38;;;4.35;;
52322;SDS011;38263;52.920;6.238;2023-05-10T09:00:26;4.80;;;3.83;;
52322;SDS011;38263;52.920;6.238;2023-05-10T09:02:53;5.03;;;3.95;;
52322;SDS011;38263;52.920;6.238;2023-05-10T09:05:19;7.13;;;4.30;;
52322;SDS011;38263;52.920;6.238;2023-05-10T09:07:45;5.57;;;3.85;;
52322;SDS011;38263;52.920;6.238;2023-05-10T09:10:11;5.53;;;4.32;;
52322;SDS011;38263;52.920;6.238;2023-05-10T09:12:38;6.47;;;4.22;;
52322;SDS011;38263;52.920;6.238;2023-05-10T09:15:04;5.55;;;4.07;;
52322;SDS011;38263;52.920;6.238;2023-05-10T09:17:32;6.80;;;3.83;;
52322;SDS011;38263;52.920;6.238;2023-05-10T09:20:03;5.43;;;3.97;;
52322;SDS011;38263;52.920;6.238;2023-05-10T09:22:32;5.90;;;4.10;;
52322;SDS011;38263;52.920;6.238;2023-05-10T09:25:11;5.15;;;3.75;;
52322;SDS011;38263;52.920;6.238;2023-05-10T09:27:41;4.55;;;3.40;;
52322;SDS011;38263;52.920;6.238;2023-05-10T09:30:15;4.65;;;3.60;;
52322;SDS011;38263;52.920;6.238;2023-05-10T09:32:42;6.43;;;3.58;;
52322;SDS011;38263;52.920;6.238;2023-05-10T09:35:13;5.03;;;3.08;;
52322;SDS011;38263;52.920;6.238;2023-05-10T09:37:40;4.55;;;3.35;;
52322;SDS011;38263;52.920;6.238;2023-05-10T09:40:11;6.43;;;3.30;;
52322;SDS011;38263;52.920;6.238;2023-05-10T09:42:38;6.68;;;3.92;;
52322;SDS011;38263;52.920;6.238;2023-05-10T09:45:05;6.05;;;3.97;;
52322;SDS011;38263;52.920;6.238;2023-05-10T09:47:34;7.65;;;4.10;;
52322;SDS011;38263;52.920;6.238;2023-05-10T09:50:00;6.88;;;4.45;;
52322;SDS011;38263;52.920;6.238;2023-05-10T09:52:29;7.20;;;4.57;;
52322;SDS011;38263;52.920;6.238;2023-05-10T09:55:15;5.55;;;4.20;;
52322;SDS011;38263;52.920;6.238;2023-05-10T09:57:42;6.85;;;4.50;;
52322;SDS011;38263;52.920;6.238;2023-05-10T10:00:08;6.45;;;4.00;;
52322;SDS011;38263;52.920;6.238;2023-05-10T10:02:37;6.60;;;4.13;;
52322;SDS011;38263;52.920;6.238;2023-05-10T10:05:05;6.65;;;4.47;;
52322;SDS011;38263;52.920;6.238;2023-05-10T10:07:31;5.45;;;4.35;;
52322;SDS011;38263;52.920;6.238;2023-05-10T10:09:58;6.30;;;4.70;;
52322;SDS011;38263;52.920;6.238;2023-05-10T10:12:24;6.70;;;4.78;;
52322;SDS011;38263;52.920;6.238;2023-05-10T10:14:50;6.10;;;4.82;;
52322;SDS011;38263;52.920;6.238;2023-05-10T10:17:17;4.90;;;3.80;;
52322;SDS011;38263;52.920;6.238;2023-05-10T10:19:44;5.75;;;4.13;;
52322;SDS011;38263;52.920;6.238;2023-05-10T10:22:11;5.30;;;3.80;;
52322;SDS011;38263;52.920;6.238;2023-05-10T10:24:37;5.80;;;4.20;;
52322;SDS011;38263;52.920;6.238;2023-05-10T10:27:14;6.70;;;4.47;;
52322;SDS011;38263;52.920;6.238;2023-05-10T10:30:07;6.47;;;4.45;;
52322;SDS011;38263;52.920;6.238;2023-05-10T10:35:21;5.57;;;4.22;;
52322;SDS011;38263;52.920;6.238;2023-05-10T10:37:47;8.48;;;5.10;;
52322;SDS011;38263;52.920;6.238;2023-05-10T10:40:32;5.50;;;4.00;;
52322;SDS011;38263;52.920;6.238;2023-05-10T10:43:20;5.35;;;4.22;;
52322;SDS011;38263;52.920;6.238;2023-05-10T10:51:01;5.80;;;4.60;;
52322;SDS011;38263;52.920;6.238;2023-05-10T10:53:28;4.35;;;3.55;;
52322;SDS011;38263;52.920;6.238;2023-05-10T10:56:10;6.53;;;4.43;;
52322;SDS011;38263;52.920;6.238;2023-05-10T10:58:39;7.78;;;4.47;;
52322;SDS011;38263;52.920;6.238;2023-05-10T11:01:11;6.55;;;3.85;;
52322;SDS011;38263;52.920;6.238;2023-05-10T11:06:33;8.00;;;4.18;;
52322;SDS011;38263;52.920;6.238;2023-05-10T11:09:07;7.72;;;3.80;;
52322;SDS011;38263;52.920;6.238;2023-05-10T11:11:48;6.40;;;3.88;;
52322;SDS011;38263;52.920;6.238;2023-05-10T11:14:17;7.15;;;3.97;;
52322;SDS011;38263;52.920;6.238;2023-05-10T11:16:46;6.20;;;3.53;;
52322;SDS011;38263;52.920;6.238;2023-05-10T11:19:13;7.45;;;4.13;;
52322;SDS011;38263;52.920;6.238;2023-05-10T11:24:30;5.93;;;4.05;;
52322;SDS011;38263;52.920;6.238;2023-05-10T11:26:55;6.78;;;4.30;;
52322;SDS011;38263;52.920;6.238;2023-05-10T11:29:21;7.78;;;3.90;;
52322;SDS011;38263;52.920;6.238;2023-05-10T11:31:47;6.63;;;4.38;;
52322;SDS011;38263;52.920;6.238;2023-05-10T11:41:26;10.55;;;5.65;;
52322;SDS011;38263;52.920;6.238;2023-05-10T11:43:53;12.43;;;6.47;;
52322;SDS011;38263;52.920;6.238;2023-05-10T11:46:21;9.27;;;6.65;;
52322;SDS011;38263;52.920;6.238;2023-05-10T11:48:51;11.63;;;7.18;;
52322;SDS011;38263;52.920;6.238;2023-05-10T11:51:22;12.40;;;8.27;;
52322;SDS011;38263;52.920;6.238;2023-05-10T11:53:49;13.25;;;7.95;;
52322;SDS011;38263;52.920;6.238;2023-05-10T11:56:19;15.35;;;8.30;;
52322;SDS011;38263;52.920;6.238;2023-05-10T11:58:53;13.50;;;8.23;;
52322;SDS011;38263;52.920;6.238;2023-05-10T12:01:20;14.93;;;8.17;;
52322;SDS011;38263;52.920;6.238;2023-05-10T12:03:47;13.30;;;8.65;;
52322;SDS011;38263;52.920;6.238;2023-05-10T12:06:14;13.23;;;8.25;;
52322;SDS011;38263;52.920;6.238;2023-05-10T12:08:44;10.55;;;7.20;;
52322;SDS011;38263;52.920;6.238;2023-05-10T12:11:11;14.32;;;9.40;;
52322;SDS011;38263;52.920;6.238;2023-05-10T12:13:39;16.17;;;8.35;;
52322;SDS011;38263;52.920;6.238;2023-05-10T12:16:12;16.60;;;9.18;;
52322;SDS011;38263;52.920;6.238;2023-05-10T12:18:39;15.10;;;9.23;;
52322;SDS011;38263;52.920;6.238;2023-05-10T12:21:06;14.95;;;9.77;;
52322;SDS011;38263;52.920;6.238;2023-05-10T12:23:31;15.18;;;9.02;;
52322;SDS011;38263;52.920;6.238;2023-05-10T12:26:02;14.50;;;8.32;;
52322;SDS011;38263;52.920;6.238;2023-05-10T12:28:29;15.15;;;8.75;;
52322;SDS011;38263;52.920;6.238;2023-05-10T12:30:57;14.90;;;9.73;;
52322;SDS011;38263;52.920;6.238;2023-05-10T12:33:23;18.20;;;9.85;;
52322;SDS011;38263;52.920;6.238;2023-05-10T12:35:49;19.10;;;10.15;;
52322;SDS011;38263;52.920;6.238;2023-05-10T12:38:24;16.35;;;9.55;;
52322;SDS011;38263;52.920;6.238;2023-05-10T12:41:07;17.70;;;10.90;;
52322;SDS011;38263;52.920;6.238;2023-05-10T12:43:35;14.52;;;9.80;;
52322;SDS011;38263;52.920;6.238;2023-05-10T12:46:11;15.57;;;9.40;;
52322;SDS011;38263;52.920;6.238;2023-05-10T12:48:38;15.88;;;10.25;;
52322;SDS011;38263;52.920;6.238;2023-05-10T12:51:05;12.60;;;8.32;;
52322;SDS011;38263;52.920;6.238;2023-05-10T12:53:34;14.65;;;8.80;;
52322;SDS011;38263;52.920;6.238;2023-05-10T12:56:00;13.70;;;8.32;;
52322;SDS011;38263;52.920;6.238;2023-05-10T12:58:26;12.13;;;7.65;;
52322;SDS011;38263;52.920;6.238;2023-05-10T13:00:52;16.80;;;8.48;;
52322;SDS011;38263;52.920;6.238;2023-05-10T13:03:18;15.52;;;9.13;;
52322;SDS011;38263;52.920;6.238;2023-05-10T13:05:44;16.48;;;8.52;;
52322;SDS011;38263;52.920;6.238;2023-05-10T13:08:10;26.10;;;9.13;;
52322;SDS011;38263;52.920;6.238;2023-05-10T13:10:36;12.48;;;7.75;;
52322;SDS011;38263;52.920;6.238;2023-05-10T13:13:02;12.00;;;7.07;;
52322;SDS011;38263;52.920;6.238;2023-05-10T13:15:27;13.50;;;8.27;;
52322;SDS011;38263;52.920;6.238;2023-05-10T13:17:53;14.00;;;7.28;;
52322;SDS011;38263;52.920;6.238;2023-05-10T13:20:19;15.73;;;8.57;;
52322;SDS011;38263;52.920;6.238;2023-05-10T13:22:45;14.88;;;8.70;;
52322;SDS011;38263;52.920;6.238;2023-05-10T13:25:11;12.50;;;8.15;;
52322;SDS011;38263;52.920;6.238;2023-05-10T13:27:39;24.90;;;13.27;;
52322;SDS011;38263;52.920;6.238;2023-05-10T13:30:05;23.38;;;12.27;;
52322;SDS011;38263;52.920;6.238;2023-05-10T13:32:32;15.68;;;9.32;;
52322;SDS011;38263;52.920;6.238;2023-05-10T13:34:58;14.45;;;9.85;;
52322;SDS011;38263;52.920;6.238;2023-05-10T13:37:24;16.77;;;9.98;;
52322;SDS011;38263;52.920;6.238;2023-05-10T13:39:50;15.63;;;9.65;;
52322;SDS011;38263;52.920;6.238;2023-05-10T13:42:16;13.43;;;8.55;;
52322;SDS011;38263;52.920;6.238;2023-05-10T13:44:42;32.45;;;17.25;;
52322;SDS011;38263;52.920;6.238;2023-05-10T13:47:08;22.70;;;13.57;;
52322;SDS011;38263;52.920;6.238;2023-05-10T13:49:33;22.25;;;12.75;;
52322;SDS011;38263;52.920;6.238;2023-05-10T13:52:00;23.92;;;15.25;;
52322;SDS011;38263;52.920;6.238;2023-05-10T13:54:32;20.75;;;13.20;;
52322;SDS011;38263;52.920;6.238;2023-05-10T13:56:58;13.10;;;8.90;;
52322;SDS011;38263;52.920;6.238;2023-05-10T13:59:24;14.75;;;10.23;;
52322;SDS011;38263;52.920;6.238;2023-05-10T14:01:49;16.67;;;11.68;;
52322;SDS011;38263;52.920;6.238;2023-05-10T14:04:15;18.30;;;12.50;;
52322;SDS011;38263;52.920;6.238;2023-05-10T14:06:41;18.85;;;12.98;;
52322;SDS011;38263;52.920;6.238;2023-05-10T14:09:07;12.65;;;9.73;;
52322;SDS011;38263;52.920;6.238;2023-05-10T14:11:33;19.70;;;13.23;;
52322;SDS011;38263;52.920;6.238;2023-05-10T14:13:59;12.82;;;9.18;;
52322;SDS011;38263;52.920;6.238;2023-05-10T14:16:25;12.77;;;8.45;;
52322;SDS011;38263;52.920;6.238;2023-05-10T14:18:52;12.57;;;8.93;;
52322;SDS011;38263;52.920;6.238;2023-05-10T14:21:18;9.88;;;7.22;;
52322;SDS011;38263;52.920;6.238;2023-05-10T14:23:43;9.20;;;6.97;;
52322;SDS011;38263;52.920;6.238;2023-05-10T14:26:09;9.38;;;6.53;;
52322;SDS011;38263;52.920;6.238;2023-05-10T14:28:35;9.30;;;5.78;;
52322;SDS011;38263;52.920;6.238;2023-05-10T14:31:01;8.10;;;6.28;;
52322;SDS011;38263;52.920;6.238;2023-05-10T14:33:27;8.15;;;5.28;;
52322;SDS011;38263;52.920;6.238;2023-05-10T14:35:53;8.45;;;5.47;;
52322;SDS011;38263;52.920;6.238;2023-05-10T14:38:21;6.72;;;5.25;;
52322;SDS011;38263;52.920;6.238;2023-05-10T14:40:48;8.48;;;5.75;;
52322;SDS011;38263;52.920;6.238;2023-05-10T14:43:14;9.57;;;5.15;;
52322;SDS011;38263;52.920;6.238;2023-05-10T14:45:40;7.22;;;5.65;;
52322;SDS011;38263;52.920;6.238;2023-05-10T14:48:06;11.20;;;6.00;;
52322;SDS011;38263;52.920;6.238;2023-05-10T14:50:36;8.30;;;6.10;;
52322;SDS011;38263;52.920;6.238;2023-05-10T14:53:02;8.70;;;4.95;;
52322;SDS011;38263;52.920;6.238;2023-05-10T14:55:28;6.75;;;5.18;;
52322;SDS011;38263;52.920;6.238;2023-05-10T14:57:54;7.07;;;4.82;;
52322;SDS011;38263;52.920;6.238;2023-05-10T15:00:19;10.70;;;5.78;;
52322;SDS011;38263;52.920;6.238;2023-05-10T15:02:45;7.70;;;5.53;;
52322;SDS011;38263;52.920;6.238;2023-05-10T15:05:12;7.72;;;4.88;;
52322;SDS011;38263;52.920;6.238;2023-05-10T15:07:39;7.65;;;5.35;;
52322;SDS011;38263;52.920;6.238;2023-05-10T15:10:05;7.97;;;5.80;;
52322;SDS011;38263;52.920;6.238;2023-05-10T15:12:31;7.22;;;4.78;;
52322;SDS011;38263;52.920;6.238;2023-05-10T15:14:57;8.20;;;5.75;;